createdAt,value
2022-09-22T00:02:31.169Z,19.00
2022-09-22T00:07:36.022Z,19.00
2022-09-22T00:12:39.220Z,18.90
2022-09-22T00:17:42.783Z,18.90
2022-09-22T00:22:50.822Z,18.90
2022-09-22T00:27:54.536Z,18.90
2022-09-22T00:32:58.103Z,18.80
2022-09-22T00:38:02.727Z,18.70
2022-09-22T00:43:16.752Z,18.60
2022-09-22T00:48:22.514Z,18.50
2022-09-22T00:53:28.055Z,18.50
2022-09-22T00:58:34.664Z,18.40
2022-09-22T01:03:39.263Z,18.40
2022-09-22T01:08:45.482Z,18.30
2022-09-22T01:13:56.403Z,18.30
2022-09-22T01:19:21.461Z,18.30
2022-09-22T01:24:56.913Z,18.20
2022-09-22T01:30:46.385Z,18.20
2022-09-22T01:36:01.065Z,18.20
2022-09-22T01:41:08.954Z,18.20
2022-09-22T01:46:19.263Z,18.20
2022-09-22T01:51:27.261Z,18.20
2022-09-22T01:56:34.304Z,18.20
2022-09-22T02:01:42.502Z,18.20
2022-09-22T02:06:50.459Z,18.20
2022-09-22T02:11:53.833Z,18.20
2022-09-22T02:16:59.156Z,18.10
2022-09-22T02:22:02.446Z,18.10
2022-09-22T02:27:08.372Z,18.10
2022-09-22T02:32:16.257Z,18.10
2022-09-22T02:37:25.395Z,18.10
2022-09-22T02:42:31.730Z,18.10
2022-09-22T02:47:41.758Z,18.10
2022-09-22T02:52:45.229Z,18.10
2022-09-22T02:57:48.805Z,18.10
2022-09-22T03:02:53.355Z,18.10
2022-09-22T03:07:56.733Z,18.10
2022-09-22T04:08:46.985Z,18.10
2022-09-22T04:13:50.237Z,18.20
2022-09-22T04:18:53.585Z,18.20
2022-09-22T04:23:58.232Z,18.20
2022-09-22T04:29:01.680Z,18.20
2022-09-22T04:34:07.598Z,18.10
2022-09-22T04:39:12.533Z,18.10
2022-09-22T04:44:16.169Z,18.10
2022-09-22T04:49:19.605Z,18.10
2022-09-22T04:54:24.238Z,18.00
2022-09-22T04:59:27.661Z,18.00
2022-09-22T05:04:31.338Z,18.00
2022-09-22T05:09:36.021Z,17.90
2022-09-22T05:14:39.580Z,18.00
2022-09-22T05:19:42.791Z,18.10
2022-09-22T05:24:47.498Z,18.10
2022-09-22T05:29:50.815Z,18.10
2022-09-22T05:34:54.313Z,18.10
2022-09-22T05:39:58.939Z,18.10
2022-09-22T06:20:43.810Z,18.50
2022-09-22T06:25:47.155Z,18.40
2022-09-22T06:36:56.168Z,18.50
2022-09-22T06:42:01.222Z,18.60
2022-09-22T06:47:06.368Z,18.60
2022-09-22T06:52:15.082Z,18.60
2022-09-22T06:57:19.164Z,18.70
2022-09-22T07:02:23.293Z,18.70
2022-09-22T07:07:29.808Z,18.80
2022-09-22T07:12:34.172Z,18.80
2022-09-22T07:17:37.375Z,18.80
2022-09-22T07:22:42.084Z,18.80
2022-09-22T07:27:45.304Z,18.90
2022-09-22T07:32:48.537Z,19.00
2022-09-22T07:38:00.905Z,19.10
2022-09-22T07:43:04.113Z,19.20
2022-09-22T07:48:24.807Z,19.30
2022-09-22T07:53:29.432Z,19.30
2022-09-22T07:58:32.752Z,19.50
2022-09-22T08:03:38.402Z,19.50
2022-09-22T08:08:46.331Z,19.50
2022-09-22T08:13:53.771Z,19.60
2022-09-22T08:18:58.719Z,19.60
2022-09-22T08:24:03.888Z,19.70
2022-09-22T08:29:08.285Z,19.80
2022-09-22T08:34:11.648Z,19.90
2022-09-22T08:39:17.921Z,20.00
2022-09-22T08:44:26.316Z,20.20
2022-09-22T08:49:52.295Z,20.40
2022-09-22T08:54:59.889Z,20.60
2022-09-22T09:00:06.995Z,20.80
2022-09-22T09:06:01.484Z,20.90
2022-09-22T09:11:15.940Z,21.00
2022-09-22T09:16:35.624Z,21.20
2022-09-22T09:21:44.990Z,21.40
2022-09-22T09:26:52.519Z,21.60
2022-09-22T09:31:58.562Z,21.80
2022-09-22T09:37:08.315Z,22.00
2022-09-22T09:42:21.324Z,22.20
2022-09-22T09:47:47.286Z,22.40
2022-09-22T09:52:50.496Z,22.60
2022-09-22T09:58:07.036Z,23.00
2022-09-22T10:03:17.785Z,23.30
2022-09-22T10:08:23.654Z,23.50
2022-09-22T10:13:33.695Z,23.80
2022-09-22T10:18:40.582Z,23.90
2022-09-22T10:23:45.224Z,24.00
2022-09-22T10:29:08.500Z,24.10
2022-09-22T10:34:31.985Z,24.20
2022-09-22T10:39:42.110Z,24.30
2022-09-22T10:44:48.974Z,24.40
2022-09-22T10:50:25.567Z,24.40
2022-09-22T10:55:31.508Z,24.60
2022-09-22T11:00:39.151Z,24.80
2022-09-22T11:06:13.527Z,25.00
2022-09-22T11:11:40.432Z,25.00
2022-09-22T11:17:04.330Z,25.10
2022-09-22T11:22:24.881Z,25.00
2022-09-22T11:27:42.238Z,24.80
2022-09-22T11:39:03.358Z,24.70
2022-09-22T11:44:31.255Z,24.60
2022-09-22T11:49:47.716Z,24.80
2022-09-22T11:55:09.088Z,25.00
2022-09-22T12:00:17.484Z,25.00
2022-09-22T12:05:27.111Z,25.10
2022-09-22T12:10:35.796Z,25.00
2022-09-22T12:15:52.356Z,24.90
2022-09-22T12:21:01.686Z,24.80
2022-09-22T12:26:08.157Z,25.00
2022-09-22T12:31:15.464Z,25.10
2022-09-22T12:36:20.186Z,25.30
2022-09-22T12:41:23.411Z,25.50
2022-09-22T12:46:29.992Z,25.70
2022-09-22T12:51:34.633Z,25.80
2022-09-22T12:56:46.617Z,25.90
2022-09-22T13:02:29.713Z,26.00
2022-09-22T13:07:36.659Z,26.00
2022-09-22T13:12:40.142Z,25.90
2022-09-22T13:17:46.194Z,25.90
2022-09-22T13:22:51.214Z,25.70
2022-09-22T13:28:13.973Z,25.60
2022-09-22T13:33:24.124Z,25.40
2022-09-22T13:38:27.463Z,25.30
2022-09-22T13:43:34.907Z,25.20
2022-09-22T13:48:39.705Z,25.10
2022-09-22T13:53:48.140Z,25.00
2022-09-22T13:58:55.534Z,25.00
2022-09-22T14:04:00.326Z,24.90
2022-09-22T14:09:04.816Z,24.80
2022-09-22T14:14:22.192Z,24.60
2022-09-22T14:19:33.280Z,24.60
2022-09-22T14:24:38.169Z,24.40
2022-09-22T14:29:41.818Z,24.30
2022-09-22T14:34:50.411Z,24.20
2022-09-22T14:39:55.228Z,24.00
2022-09-22T14:45:22.310Z,23.90
2022-09-22T14:50:40.132Z,23.80
2022-09-22T14:55:46.603Z,23.70
2022-09-22T15:01:13.172Z,23.60
2022-09-22T15:06:17.941Z,23.50
2022-09-22T15:11:21.406Z,23.40
2022-09-22T15:16:38.223Z,23.40
2022-09-22T15:21:46.382Z,23.30
2022-09-22T15:26:49.669Z,23.30
2022-09-22T15:31:53.112Z,23.20
2022-09-22T15:36:57.789Z,23.10
2022-09-22T15:42:01.263Z,23.00
2022-09-22T15:47:04.965Z,22.80
2022-09-22T15:52:10.763Z,22.80
2022-09-22T15:57:14.970Z,22.70
2022-09-22T16:02:18.423Z,22.60
2022-09-22T16:07:23.373Z,22.50
2022-09-22T16:12:27.640Z,22.50
2022-09-22T16:17:30.946Z,22.40
2022-09-22T16:22:36.460Z,22.30
2022-09-22T16:27:39.977Z,22.20
2022-09-22T16:32:43.631Z,22.10
2022-09-22T16:37:48.369Z,22.00
2022-09-22T16:42:51.993Z,22.00
2022-09-22T16:47:55.311Z,21.90
2022-09-22T16:52:59.850Z,21.80
2022-09-22T16:58:03.622Z,21.70
2022-09-22T17:03:06.795Z,21.70
2022-09-22T17:08:11.575Z,21.60
2022-09-22T17:13:18.196Z,21.60
2022-09-22T17:18:22.055Z,21.50
2022-09-22T17:23:26.924Z,21.50
2022-09-22T17:28:30.582Z,21.40
2022-09-22T17:33:34.572Z,21.30
2022-09-22T17:38:40.235Z,21.30
2022-09-22T17:43:43.612Z,21.20
2022-09-22T17:49:04.446Z,21.20
2022-09-22T17:54:36.723Z,21.20
2022-09-22T17:59:40.925Z,21.10
2022-09-22T18:04:45.596Z,21.00
2022-09-22T18:09:51.954Z,21.00
2022-09-22T18:14:56.564Z,20.90
2022-09-22T18:20:00.963Z,20.80
2022-09-22T18:25:08.980Z,20.80
2022-09-22T18:30:16.021Z,20.80
2022-09-22T18:35:20.191Z,20.80
2022-09-22T18:40:25.495Z,20.80
2022-09-22T18:45:28.846Z,20.60
2022-09-22T18:50:34.631Z,20.80
2022-09-22T18:55:39.436Z,20.90
2022-09-22T19:00:42.712Z,21.00
2022-09-22T19:05:46.174Z,21.00
2022-09-22T19:10:51.441Z,21.00
2022-09-22T19:15:57.945Z,20.90
2022-09-22T19:21:04.056Z,20.90
2022-09-22T19:26:10.733Z,20.80
2022-09-22T19:31:15.385Z,20.70
2022-09-22T19:36:18.811Z,20.60
2022-09-22T19:41:24.209Z,20.60
2022-09-22T19:46:27.582Z,20.50
2022-09-22T19:51:30.771Z,20.40
2022-09-22T19:56:35.349Z,20.40
2022-09-22T20:01:41.291Z,20.40
2022-09-22T20:06:44.690Z,20.30
2022-09-22T20:11:52.360Z,20.30
2022-09-22T20:16:57.264Z,20.20
2022-09-22T20:22:21.336Z,20.20
2022-09-22T20:27:29.263Z,20.10
2022-09-22T20:32:33.100Z,20.10
2022-09-22T20:37:36.555Z,20.10
2022-09-22T20:42:41.699Z,20.00
2022-09-22T20:47:44.898Z,19.90
2022-09-22T20:52:48.096Z,19.90
2022-09-22T20:57:53.012Z,19.90
2022-09-22T21:03:00.320Z,19.80
2022-09-22T21:08:17.829Z,19.80
2022-09-22T21:13:22.541Z,19.70
2022-09-22T21:18:26.636Z,19.70
2022-09-22T21:23:30.121Z,19.60
2022-09-22T21:28:35.000Z,19.60
2022-09-22T21:33:38.496Z,19.50
2022-09-22T21:38:42.159Z,19.50
2022-09-22T21:43:47.488Z,19.40
2022-09-22T21:48:50.687Z,19.40
2022-09-22T21:53:55.048Z,19.30
2022-09-22T21:58:59.562Z,19.20
2022-09-22T22:04:08.011Z,19.20
2022-09-22T22:09:17.214Z,19.10
2022-09-22T22:14:22.843Z,19.10
2022-09-22T22:19:27.137Z,19.00
2022-09-22T22:24:36.163Z,18.90
2022-09-22T22:29:41.062Z,18.90
2022-09-22T22:34:44.254Z,18.80
2022-09-22T22:39:47.785Z,18.80
2022-09-22T22:44:52.381Z,18.70
2022-09-22T22:49:55.503Z,18.70
2022-09-22T22:54:58.663Z,18.60
2022-09-22T23:00:03.525Z,18.60
2022-09-22T23:05:07.872Z,18.60
2022-09-22T23:10:11.384Z,18.50
2022-09-22T23:15:16.398Z,18.50
2022-09-22T23:20:20.253Z,18.40
2022-09-22T23:25:23.876Z,18.30
2022-09-22T23:30:28.911Z,18.30
2022-09-22T23:35:32.116Z,18.30
2022-09-22T23:40:35.416Z,18.20
2022-09-22T23:45:40.612Z,18.20
2022-09-22T23:50:47.993Z,18.10
2022-09-22T23:55:51.524Z,18.10
